Time;durP1;ratioP1;P1;durP2;ratioP2;P2;SDS_P1;SDS_P2;PMS_P1;PMS_P2;Temp;Humidity;BMP_temperature;BMP_pressure;BME280_temperature;BME280_humidity;BME280_pressure;Samples;Min_cycle;Max_cycle;Signal;HPM_P1;HPM_P2
2023/05/06 00:00:16;;;;;;;;;;;10.10;99.90;;;;;;5049375;28;20044;-69
2023/05/06 00:02:41;;;;;;;;;;;10.10;99.90;;;;;;5051831;28;20434;-69
2023/05/06 00:05:07;;;;;;;;;;;10.20;99.90;;;;;;5054971;28;19944;-68
2023/05/06 00:07:32;;;;;;;;;;;10.20;99.90;;;;;;5055228;28;19975;-68
2023/05/06 00:09:58;;;;;;;;;;;10.10;99.90;;;;;;5051560;28;19999;-67
2023/05/06 00:12:23;;;;;;;;;;;10.00;99.90;;;;;;5048454;28;20319;-69
2023/05/06 00:14:49;;;;;;;;;;;10.00;99.90;;;;;;5053656;28;20015;-68
2023/05/06 00:17:14;;;;;;;;;;;10.10;99.90;;;;;;5051726;28;19995;-67
2023/05/06 00:19:40;;;;;;;;;;;10.10;99.90;;;;;;5053275;28;19921;-69
2023/05/06 00:22:05;;;;;;;;;;;10.10;99.90;;;;;;5054565;28;19971;-68
2023/05/06 00:24:31;;;;;;;;;;;10.10;99.90;;;;;;5055206;28;20390;-68
2023/05/06 00:26:57;;;;;;;;;;;10.20;99.90;;;;;;5048205;28;19920;-68
2023/05/06 00:29:22;;;;;;;;;;;10.20;99.90;;;;;;5052641;28;19921;-69
2023/05/06 00:31:48;;;;;;;;;;;10.10;99.90;;;;;;5053911;28;20471;-69
2023/05/06 00:34:13;;;;;;;;;;;10.10;99.90;;;;;;5044317;28;20011;-68
2023/05/06 00:36:39;;;;;;;;;;;10.10;99.90;;;;;;5041436;28;20383;-68
2023/05/06 00:39:05;;;;;;;;;;;10.10;99.90;;;;;;5052694;28;19935;-68
2023/05/06 00:41:31;;;;;;;;;;;10.00;99.90;;;;;;5070379;28;19956;-69
2023/05/06 00:43:57;;;;;;;;;;;9.90;99.90;;;;;;5053873;28;20559;-69
2023/05/06 00:46:23;;;;;;;;;;;9.90;99.90;;;;;;5049678;28;20011;-69
2023/05/06 00:48:48;;;;;;;;;;;10.00;99.90;;;;;;5054072;28;19920;-69
2023/05/06 00:51:14;;;;;;;;;;;9.80;99.90;;;;;;5040295;28;19921;-69
2023/05/06 00:53:39;;;;;;;;;;;9.60;99.90;;;;;;5053076;28;19974;-68
2023/05/06 00:56:05;;;;;;;;;;;9.60;99.90;;;;;;5052762;28;19920;-69
2023/05/06 00:58:31;;;;;;;;;;;9.70;99.90;;;;;;5050421;28;19951;-69
2023/05/06 01:00:57;;;;;;;;;;;9.70;99.90;;;;;;5041307;28;19921;-68
2023/05/06 01:03:22;;;;;;;;;;;9.60;99.90;;;;;;5051946;28;19931;-68
2023/05/06 01:06:03;;;;;;;;;;;9.40;99.90;;;;;;5052983;28;19921;-68
2023/05/06 01:08:36;;;;;;;;;;;9.50;99.90;;;;;;5042955;28;19921;-68
2023/05/06 01:11:06;;;;;;;;;;;9.40;99.90;;;;;;5049371;28;19932;-67
2023/05/06 01:13:37;;;;;;;;;;;9.40;99.90;;;;;;5054066;28;20351;-67
2023/05/06 01:16:03;;;;;;;;;;;9.60;99.90;;;;;;5040867;28;19921;-67
2023/05/06 01:18:31;;;;;;;;;;;9.70;99.90;;;;;;5052146;28;19921;-67
2023/05/06 01:20:58;;;;;;;;;;;9.70;99.90;;;;;;5053802;28;19924;-68
2023/05/06 01:23:23;;;;;;;;;;;9.90;99.90;;;;;;5050323;28;19936;-69
2023/05/06 01:25:49;;;;;;;;;;;9.80;99.90;;;;;;5045883;28;19921;-67
2023/05/06 01:28:14;;;;;;;;;;;9.80;99.90;;;;;;5053046;28;19921;-67
2023/05/06 01:30:53;;;;;;;;;;;9.70;99.90;;;;;;5072840;28;19928;-68
2023/05/06 01:33:28;;;;;;;;;;;9.70;99.90;;;;;;5045791;28;19921;-66
2023/05/06 01:35:59;;;;;;;;;;;9.80;99.90;;;;;;5052983;28;19975;-67
2023/05/06 01:38:34;;;;;;;;;;;9.80;99.90;;;;;;5051834;28;19952;-68
2023/05/06 01:41:00;;;;;;;;;;;9.90;99.90;;;;;;5037434;28;19921;-67
2023/05/06 01:43:27;;;;;;;;;;;9.80;99.90;;;;;;5051846;28;19947;-67
2023/05/06 01:45:53;;;;;;;;;;;9.70;99.90;;;;;;5038053;28;19963;-67
2023/05/06 01:48:21;;;;;;;;;;;9.50;99.90;;;;;;5030172;28;20745;-67
2023/05/06 01:50:47;;;;;;;;;;;9.40;99.90;;;;;;5033057;28;19921;-69
2023/05/06 01:53:12;;;;;;;;;;;9.30;99.90;;;;;;5049690;28;19927;-68
2023/05/06 01:55:38;;;;;;;;;;;9.30;99.90;;;;;;5051493;28;19927;-67
2023/05/06 01:58:03;;;;;;;;;;;9.30;99.90;;;;;;5045243;28;19968;-67
2023/05/06 02:00:29;;;;;;;;;;;9.20;99.90;;;;;;5048003;28;19925;-67
2023/05/06 02:02:55;;;;;;;;;;;9.30;99.90;;;;;;5051330;28;19925;-68
2023/05/06 02:05:20;;;;;;;;;;;9.40;99.90;;;;;;5051910;28;20440;-68
2023/05/06 02:07:46;;;;;;;;;;;9.40;99.90;;;;;;5040418;28;19931;-67
2023/05/06 02:10:11;;;;;;;;;;;9.40;99.90;;;;;;5045285;28;19925;-67
2023/05/06 02:12:36;;;;;;;;;;;9.40;99.90;;;;;;5052832;28;20011;-68
2023/05/06 02:15:03;;;;;;;;;;;9.20;99.90;;;;;;5040057;28;19925;-67
2023/05/06 02:17:28;;;;;;;;;;;9.10;99.90;;;;;;5044363;28;19939;-68
2023/05/06 02:19:53;;;;;;;;;;;9.00;99.90;;;;;;5051601;28;19947;-67
2023/05/06 02:22:19;;;;;;;;;;;8.90;99.90;;;;;;5052987;28;20020;-67
2023/05/06 02:24:44;;;;;;;;;;;8.80;99.90;;;;;;5046422;28;20295;-67
2023/05/06 02:27:10;;;;;;;;;;;8.70;99.90;;;;;;5051926;28;19963;-67
2023/05/06 02:29:35;;;;;;;;;;;8.70;99.90;;;;;;5059024;28;19924;-67
2023/05/06 02:32:01;;;;;;;;;;;8.70;99.90;;;;;;5038321;28;20382;-67
2023/05/06 02:34:26;;;;;;;;;;;8.70;99.90;;;;;;5048895;28;20388;-67
2023/05/06 02:36:52;;;;;;;;;;;8.70;99.90;;;;;;5032770;28;19982;-67
2023/05/06 02:39:17;;;;;;;;;;;8.70;99.90;;;;;;5031066;28;19921;-68
2023/05/06 02:41:42;;;;;;;;;;;8.70;99.90;;;;;;5036162;28;19921;-68
2023/05/06 02:44:08;;;;;;;;;;;8.70;99.90;;;;;;5050069;28;19932;-67
2023/05/06 02:46:33;;;;;;;;;;;8.40;99.90;;;;;;5049026;28;19974;-67
2023/05/06 02:48:59;;;;;;;;;;;8.20;99.90;;;;;;5041053;28;20341;-68
2023/05/06 02:51:25;;;;;;;;;;;8.20;99.90;;;;;;5050254;28;19921;-67
2023/05/06 02:53:50;;;;;;;;;;;8.20;99.90;;;;;;5052260;28;19929;-67
2023/05/06 02:56:16;;;;;;;;;;;8.10;99.90;;;;;;5047478;28;19943;-67
2023/05/06 02:58:41;;;;;;;;;;;8.00;99.90;;;;;;5050848;28;20294;-68
2023/05/06 03:01:07;;;;;;;;;;;7.90;99.90;;;;;;5034474;28;19967;-67
2023/05/06 03:03:32;;;;;;;;;;;7.90;99.90;;;;;;5029658;28;19925;-67
2023/05/06 03:05:58;;;;;;;;;;;8.00;99.90;;;;;;5033508;28;19921;-67
2023/05/06 03:08:23;;;;;;;;;;;8.00;99.90;;;;;;5049057;28;19920;-67
2023/05/06 03:10:49;;;;;;;;;;;7.90;99.90;;;;;;5050923;28;19921;-67
2023/05/06 03:13:15;;;;;;;;;;;7.80;99.90;;;;;;5048598;28;20367;-67
2023/05/06 03:15:40;;;;;;;;;;;7.70;99.90;;;;;;5047671;28;19936;-67
2023/05/06 03:18:06;;;;;;;;;;;7.70;99.90;;;;;;5051498;28;20035;-67
2023/05/06 03:20:31;;;;;;;;;;;7.70;99.90;;;;;;5056416;28;19921;-67
2023/05/06 03:22:56;;;;;;;;;;;7.80;99.90;;;;;;5046309;28;20342;-67
2023/05/06 03:25:22;;;;;;;;;;;7.80;99.90;;;;;;5051359;28;20409;-68
2023/05/06 03:27:47;;;;;;;;;;;7.80;99.90;;;;;;5045259;28;19921;-67
2023/05/06 03:30:13;;;;;;;;;;;7.90;99.90;;;;;;5041688;28;19921;-67
2023/05/06 03:32:38;;;;;;;;;;;8.10;99.90;;;;;;5051371;28;19931;-67
2023/05/06 03:35:05;;;;;;;;;;;8.10;99.90;;;;;;5052141;28;19925;-67
2023/05/06 03:37:31;;;;;;;;;;;8.20;99.90;;;;;;5050229;28;19927;-69
2023/05/06 03:39:59;;;;;;;;;;;8.30;99.90;;;;;;5055223;28;19924;-67
2023/05/06 03:42:25;;;;;;;;;;;8.40;99.90;;;;;;5050151;28;20379;-68
2023/05/06 03:44:50;;;;;;;;;;;8.50;99.90;;;;;;5049385;28;19927;-67
2023/05/06 03:47:16;;;;;;;;;;;8.40;99.90;;;;;;5038083;28;19979;-69
2023/05/06 03:49:41;;;;;;;;;;;8.40;99.90;;;;;;5046575;28;20291;-67
2023/05/06 03:52:07;;;;;;;;;;;8.40;99.90;;;;;;5042913;28;19921;-67
2023/05/06 03:54:32;;;;;;;;;;;8.40;99.90;;;;;;5034079;28;22250;-68
2023/05/06 03:56:58;;;;;;;;;;;8.30;99.90;;;;;;5038334;28;20016;-67
2023/05/06 03:59:23;;;;;;;;;;;8.20;99.90;;;;;;5049710;28;19946;-68
2023/05/06 04:01:49;;;;;;;;;;;8.20;99.90;;;;;;5050868;28;20348;-68
2023/05/06 04:04:14;;;;;;;;;;;8.20;99.90;;;;;;5043374;28;19925;-67
2023/05/06 04:06:40;;;;;;;;;;;8.20;99.90;;;;;;5051233;28;19921;-68
2023/05/06 04:09:05;;;;;;;;;;;8.20;99.90;;;;;;5050978;28;20686;-68
2023/05/06 04:11:31;;;;;;;;;;;8.20;99.90;;;;;;5039379;28;19921;-68
2023/05/06 04:13:56;;;;;;;;;;;8.20;99.90;;;;;;5050155;28;19954;-67
2023/05/06 04:16:22;;;;;;;;;;;8.20;99.90;;;;;;5050999;28;19967;-68
2023/05/06 04:18:48;;;;;;;;;;;8.20;99.90;;;;;;5053167;28;19921;-67
2023/05/06 04:21:13;;;;;;;;;;;8.20;99.90;;;;;;5019614;28;19983;-67
2023/05/06 04:23:40;;;;;;;;;;;8.20;99.90;;;;;;5046840;28;19992;-67
2023/05/06 04:26:05;;;;;;;;;;;8.30;99.90;;;;;;5055093;28;20385;-67
2023/05/06 04:28:31;;;;;;;;;;;8.30;99.90;;;;;;5047802;28;19986;-67
2023/05/06 04:30:57;;;;;;;;;;;8.30;99.90;;;;;;5054353;28;20058;-67
2023/05/06 04:33:23;;;;;;;;;;;8.30;99.90;;;;;;5053353;28;19927;-68
2023/05/06 04:35:49;;;;;;;;;;;8.30;99.90;;;;;;5055263;28;19928;-67
2023/05/06 04:38:14;;;;;;;;;;;8.40;99.90;;;;;;5042382;28;19956;-68
2023/05/06 04:40:40;;;;;;;;;;;8.50;99.90;;;;;;5054562;28;20475;-67
2023/05/06 04:43:05;;;;;;;;;;;8.60;99.90;;;;;;5054661;28;19932;-67
2023/05/06 04:45:31;;;;;;;;;;;8.60;99.90;;;;;;5033627;28;20000;-68
2023/05/06 04:47:56;;;;;;;;;;;8.80;99.90;;;;;;5043365;28;20396;-67
2023/05/06 04:50:22;;;;;;;;;;;8.80;99.90;;;;;;5054149;28;19921;-67
2023/05/06 04:52:47;;;;;;;;;;;8.90;99.90;;;;;;5052274;28;19951;-68
2023/05/06 04:55:13;;;;;;;;;;;9.00;99.90;;;;;;5045221;28;19921;-69
2023/05/06 04:57:38;;;;;;;;;;;9.10;99.90;;;;;;5041084;28;19925;-68
2023/05/06 05:00:04;;;;;;;;;;;9.10;99.90;;;;;;5036994;28;19928;-70
2023/05/06 05:02:30;;;;;;;;;;;9.20;99.90;;;;;;5038969;28;19925;-70
2023/05/06 05:04:55;;;;;;;;;;;9.20;99.90;;;;;;5036890;28;19935;-70
2023/05/06 05:07:21;;;;;;;;;;;9.20;99.90;;;;;;5043141;28;20414;-68
2023/05/06 05:09:46;;;;;;;;;;;9.20;99.90;;;;;;5040212;28;19925;-69
2023/05/06 05:12:12;;;;;;;;;;;9.30;99.90;;;;;;5040938;28;19947;-71
2023/05/06 05:14:37;;;;;;;;;;;9.30;99.90;;;;;;5027652;28;19968;-69
2023/05/06 05:17:02;;;;;;;;;;;9.40;99.90;;;;;;5040587;28;19929;-69
2023/05/06 05:19:28;;;;;;;;;;;9.50;99.90;;;;;;5040735;28;19928;-69
2023/05/06 05:21:53;;;;;;;;;;;9.50;99.90;;;;;;5040829;28;20345;-69
2023/05/06 05:24:19;;;;;;;;;;;9.60;99.90;;;;;;5037837;28;20432;-69
2023/05/06 05:26:44;;;;;;;;;;;9.70;99.90;;;;;;5043564;28;19928;-70
2023/05/06 05:29:12;;;;;;;;;;;9.80;99.90;;;;;;5043060;28;20478;-69
2023/05/06 05:31:41;;;;;;;;;;;9.90;99.90;;;;;;5040581;28;19920;-71
2023/05/06 05:34:06;;;;;;;;;;;9.90;99.90;;;;;;5062392;28;19936;-69
2023/05/06 05:36:31;;;;;;;;;;;10.00;99.90;;;;;;5040284;28;19985;-69
2023/05/06 05:38:57;;;;;;;;;;;10.00;99.90;;;;;;5038243;28;19985;-68
2023/05/06 05:41:24;;;;;;;;;;;10.00;99.90;;;;;;5049665;28;19932;-69
2023/05/06 05:43:49;;;;;;;;;;;10.00;99.90;;;;;;5050144;28;19929;-69
2023/05/06 05:46:15;;;;;;;;;;;10.10;99.90;;;;;;5046662;28;19925;-69
2023/05/06 05:48:41;;;;;;;;;;;10.10;99.90;;;;;;5044469;28;20335;-69
2023/05/06 05:51:06;;;;;;;;;;;10.20;99.90;;;;;;5038769;28;20418;-68
2023/05/06 05:53:32;;;;;;;;;;;10.30;99.90;;;;;;5032114;28;19920;-68
2023/05/06 05:55:57;;;;;;;;;;;10.50;99.90;;;;;;5050072;28;20264;-68
2023/05/06 05:58:23;;;;;;;;;;;10.70;99.90;;;;;;5042529;28;19928;-68
2023/05/06 06:00:48;;;;;;;;;;;10.90;99.90;;;;;;5041066;28;19952;-67
2023/05/06 06:03:14;;;;;;;;;;;11.00;99.90;;;;;;5049668;28;19990;-68
2023/05/06 06:05:40;;;;;;;;;;;11.10;99.90;;;;;;5049758;28;20047;-70
2023/05/06 06:08:05;;;;;;;;;;;11.20;99.90;;;;;;5030242;28;20368;-69
2023/05/06 06:10:31;;;;;;;;;;;11.30;99.90;;;;;;5046035;28;20539;-69
2023/05/06 06:12:56;;;;;;;;;;;11.40;99.90;;;;;;5048265;28;19968;-69
2023/05/06 06:15:22;;;;;;;;;;;11.60;99.90;;;;;;5035926;28;20360;-71
2023/05/06 06:17:47;;;;;;;;;;;11.70;99.90;;;;;;5039875;28;19921;-68
2023/05/06 06:20:13;;;;;;;;;;;11.80;99.90;;;;;;5031587;28;19939;-72
2023/05/06 06:22:38;;;;;;;;;;;11.90;99.90;;;;;;5039037;28;19979;-68
2023/05/06 06:25:04;;;;;;;;;;;12.10;99.90;;;;;;5037866;28;20432;-70
2023/05/06 06:27:33;;;;;;;;;;;12.20;99.90;;;;;;5039830;28;19974;-69
2023/05/06 06:29:58;;;;;;;;;;;12.30;99.90;;;;;;5037498;28;19924;-70
2023/05/06 06:32:24;;;;;;;;;;;12.40;99.90;;;;;;5039390;28;20044;-70
2023/05/06 06:34:49;;;;;;;;;;;12.60;99.90;;;;;;5042082;28;19933;-69
2023/05/06 06:37:15;;;;;;;;;;;12.70;99.90;;;;;;5040326;28;19921;-70
2023/05/06 06:39:40;;;;;;;;;;;12.90;99.90;;;;;;5042107;28;19925;-70
2023/05/06 06:42:06;;;;;;;;;;;13.00;99.90;;;;;;5035989;28;19921;-72
2023/05/06 06:44:34;;;;;;;;;;;13.10;99.90;;;;;;5036804;28;21050;-68
2023/05/06 06:47:00;;;;;;;;;;;13.20;99.90;;;;;;5048094;28;20355;-69
2023/05/06 06:49:26;;;;;;;;;;;13.40;99.90;;;;;;5050714;28;20390;-68
2023/05/06 06:51:51;;;;;;;;;;;13.70;99.90;;;;;;5045942;28;19921;-70
2023/05/06 06:54:16;;;;;;;;;;;13.80;99.90;;;;;;5036061;28;19925;-71
2023/05/06 06:56:42;;;;;;;;;;;14.00;99.90;;;;;;5032753;28;19924;-69
2023/05/06 06:59:07;;;;;;;;;;;14.10;99.90;;;;;;5038614;28;19921;-69
2023/05/06 07:01:33;;;;;;;;;;;14.30;99.90;;;;;;5052080;28;19971;-69
2023/05/06 07:03:58;;;;;;;;;;;14.50;99.90;;;;;;5033365;28;19925;-68
2023/05/06 07:06:24;;;;;;;;;;;14.60;99.90;;;;;;5049977;28;19920;-68
2023/05/06 07:08:49;;;;;;;;;;;14.60;99.90;;;;;;5039323;28;19986;-68
2023/05/06 07:11:15;;;;;;;;;;;14.50;99.90;;;;;;5049161;28;20298;-69
2023/05/06 07:13:40;;;;;;;;;;;14.60;99.90;;;;;;5046589;28;19921;-66
2023/05/06 07:16:06;;;;;;;;;;;14.50;99.90;;;;;;5040068;28;19937;-70
2023/05/06 07:18:31;;;;;;;;;;;14.60;99.90;;;;;;5037348;28;19968;-68
2023/05/06 07:20:57;;;;;;;;;;;14.70;99.90;;;;;;5047799;28;19959;-69
2023/05/06 07:23:22;;;;;;;;;;;14.70;99.90;;;;;;5037468;28;19932;-70
2023/05/06 07:25:48;;;;;;;;;;;14.70;99.90;;;;;;5049945;28;20040;-69
2023/05/06 07:28:14;;;;;;;;;;;14.80;99.90;;;;;;5035453;28;20394;-70
2023/05/06 07:30:40;;;;;;;;;;;14.90;99.90;;;;;;5034843;28;19920;-70
2023/05/06 07:33:05;;;;;;;;;;;14.90;99.90;;;;;;5031696;28;20019;-69
2023/05/06 07:35:31;;;;;;;;;;;15.00;99.90;;;;;;5048416;28;19921;-69
2023/05/06 07:37:56;;;;;;;;;;;15.10;99.90;;;;;;5048455;28;19925;-70
2023/05/06 07:40:22;;;;;;;;;;;15.20;99.90;;;;;;5021372;28;19928;-69
2023/05/06 07:42:47;;;;;;;;;;;15.30;99.90;;;;;;5042447;28;20453;-69
2023/05/06 07:45:14;;;;;;;;;;;15.30;99.90;;;;;;5048309;28;20027;-69
2023/05/06 07:47:39;;;;;;;;;;;15.40;99.90;;;;;;5024413;28;19921;-68
2023/05/06 07:50:05;;;;;;;;;;;15.60;99.90;;;;;;5034483;28;19927;-68
2023/05/06 07:52:31;;;;;;;;;;;15.80;99.90;;;;;;5051562;28;19924;-69
2023/05/06 07:54:56;;;;;;;;;;;15.90;99.90;;;;;;5055110;28;20339;-69
2023/05/06 07:57:22;;;;;;;;;;;16.00;99.90;;;;;;5042352;28;19935;-69
2023/05/06 07:59:48;;;;;;;;;;;16.20;99.90;;;;;;5048917;28;20366;-69
2023/05/06 08:02:14;;;;;;;;;;;16.10;99.90;;;;;;5055830;28;19921;-69
2023/05/06 08:04:39;;;;;;;;;;;16.00;99.90;;;;;;5034125;28;19921;-70
2023/05/06 08:07:05;;;;;;;;;;;16.00;99.90;;;;;;5034710;28;19925;-69
2023/05/06 08:09:30;;;;;;;;;;;15.90;99.90;;;;;;5040341;28;19956;-68
2023/05/06 08:11:57;;;;;;;;;;;15.90;99.90;;;;;;5047027;28;20007;-69
2023/05/06 08:14:24;;;;;;;;;;;16.00;99.90;;;;;;5055007;28;19921;-70
2023/05/06 08:16:50;;;;;;;;;;;16.30;99.90;;;;;;5055326;28;20485;-70
2023/05/06 08:19:16;;;;;;;;;;;16.40;99.90;;;;;;5043655;28;19929;-69
2023/05/06 08:21:41;;;;;;;;;;;16.60;99.90;;;;;;5034145;28;19921;-69
2023/05/06 08:24:07;;;;;;;;;;;16.80;99.90;;;;;;5045007;28;19984;-70
2023/05/06 08:26:32;;;;;;;;;;;16.90;99.90;;;;;;5054666;28;19924;-69
2023/05/06 08:28:58;;;;;;;;;;;17.10;99.90;;;;;;5054809;28;20408;-70
2023/05/06 08:31:24;;;;;;;;;;;17.10;99.90;;;;;;5043618;28;19921;-70
2023/05/06 08:33:50;;;;;;;;;;;17.00;99.90;;;;;;5043506;28;19947;-70
2023/05/06 08:36:15;;;;;;;;;;;16.90;99.90;;;;;;5051794;28;19920;-70
2023/05/06 08:38:47;;;;;;;;;;;17.10;99.90;;;;;;5042737;28;19974;-69
2023/05/06 08:41:15;;;;;;;;;;;17.00;99.90;;;;;;5039541;28;20399;-69
2023/05/06 08:43:42;;;;;;;;;;;17.10;99.90;;;;;;5050409;28;19925;-70
2023/05/06 08:46:07;;;;;;;;;;;17.20;99.90;;;;;;5068491;28;19924;-70
2023/05/06 08:48:33;;;;;;;;;;;17.30;99.90;;;;;;5042198;28;20414;-69
2023/05/06 08:51:01;;;;;;;;;;;17.30;99.90;;;;;;5049921;28;19921;-70
2023/05/06 08:53:27;;;;;;;;;;;17.30;99.90;;;;;;5050016;28;19925;-70
2023/05/06 08:55:53;;;;;;;;;;;17.40;99.90;;;;;;5039081;28;19932;-69
2023/05/06 08:58:19;;;;;;;;;;;17.30;99.90;;;;;;5050670;28;19925;-69
2023/05/06 09:00:45;;;;;;;;;;;17.40;99.90;;;;;;5051106;28;19947;-69
2023/05/06 09:03:10;;;;;;;;;;;17.50;99.90;;;;;;5049744;28;19925;-69
2023/05/06 09:05:36;;;;;;;;;;;17.40;99.90;;;;;;5044583;28;20023;-70
2023/05/06 09:08:02;;;;;;;;;;;17.50;99.90;;;;;;5052469;28;19929;-69
2023/05/06 09:10:31;;;;;;;;;;;17.60;99.90;;;;;;5030839;28;19935;-70
2023/05/06 09:12:57;;;;;;;;;;;17.70;99.90;;;;;;5046523;28;20407;-69
2023/05/06 09:15:23;;;;;;;;;;;17.80;99.90;;;;;;5053036;28;19972;-70
2023/05/06 09:17:48;;;;;;;;;;;17.70;99.90;;;;;;5052540;28;19921;-70
2023/05/06 09:20:14;;;;;;;;;;;17.70;99.90;;;;;;5043159;28;19921;-71
2023/05/06 09:22:40;;;;;;;;;;;17.80;99.90;;;;;;5052160;28;20283;-69
2023/05/06 09:25:05;;;;;;;;;;;18.00;99.90;;;;;;5053847;28;19921;-70
2023/05/06 09:27:32;;;;;;;;;;;18.20;99.90;;;;;;5041885;28;19921;-71
2023/05/06 09:30:10;;;;;;;;;;;18.30;99.90;;;;;;5046451;28;20304;-69
2023/05/06 09:32:35;;;;;;;;;;;18.30;99.90;;;;;;5046627;28;19920;-69
2023/05/06 09:35:01;;;;;;;;;;;18.30;99.90;;;;;;5053565;28;20333;-68
2023/05/06 09:37:26;;;;;;;;;;;18.40;99.90;;;;;;5046049;28;19921;-69
2023/05/06 09:39:53;;;;;;;;;;;18.80;99.90;;;;;;5051245;28;19921;-70
2023/05/06 09:42:20;;;;;;;;;;;19.10;99.90;;;;;;5051646;28;19928;-69
2023/05/06 09:44:46;;;;;;;;;;;19.20;99.90;;;;;;5049348;28;19925;-69
2023/05/06 09:47:12;;;;;;;;;;;19.50;99.90;;;;;;5052610;28;20433;-69
2023/05/06 09:49:37;;;;;;;;;;;19.20;99.90;;;;;;5052955;28;19936;-71
2023/05/06 09:52:03;;;;;;;;;;;19.40;99.90;;;;;;5053407;28;20386;-70
2023/05/06 09:54:28;;;;;;;;;;;19.60;99.90;;;;;;5047747;28;19928;-69
2023/05/06 09:56:55;;;;;;;;;;;19.60;99.90;;;;;;5051878;28;19952;-71
2023/05/06 09:59:21;;;;;;;;;;;19.70;99.90;;;;;;5048933;28;19920;-70
2023/05/06 10:01:47;;;;;;;;;;;19.90;99.90;;;;;;5031897;28;20391;-70
2023/05/06 10:04:14;;;;;;;;;;;20.10;99.90;;;;;;5039500;28;19994;-71
2023/05/06 10:06:40;;;;;;;;;;;20.10;99.90;;;;;;5044963;28;19964;-70
2023/05/06 10:09:09;;;;;;;;;;;20.50;99.90;;;;;;5047122;28;19967;-70
2023/05/06 10:11:35;;;;;;;;;;;20.40;99.90;;;;;;5037606;28;19987;-71
2023/05/06 10:14:01;;;;;;;;;;;20.40;99.90;;;;;;5058410;28;19921;-70
2023/05/06 10:16:27;;;;;;;;;;;20.30;99.90;;;;;;5040368;28;19924;-70
2023/05/06 10:18:54;;;;;;;;;;;20.40;99.90;;;;;;5035234;28;19979;-70
2023/05/06 10:21:20;;;;;;;;;;;20.50;99.90;;;;;;5036954;28;19947;-70
2023/05/06 10:23:55;;;;;;;;;;;20.30;99.90;;;;;;5063534;28;19931;-70
2023/05/06 10:26:21;;;;;;;;;;;20.10;99.90;;;;;;5050708;28;19920;-70
2023/05/06 10:28:49;;;;;;;;;;;20.20;99.90;;;;;;5043395;28;19927;-70
2023/05/06 10:31:15;;;;;;;;;;;20.10;99.90;;;;;;5049534;28;19921;-70
2023/05/06 10:33:43;;;;;;;;;;;20.20;99.90;;;;;;5053228;28;19924;-70
2023/05/06 10:36:19;;;;;;;;;;;20.20;99.90;;;;;;5039296;28;19932;-70
2023/05/06 10:38:48;;;;;;;;;;;20.50;99.90;;;;;;5036086;28;19920;-70
2023/05/06 10:41:13;;;;;;;;;;;20.90;99.90;;;;;;5044482;28;19921;-71
2023/05/06 10:43:42;;;;;;;;;;;21.10;99.90;;;;;;5029680;28;19932;-71
2023/05/06 10:46:09;;;;;;;;;;;21.20;99.90;;;;;;5035804;28;19983;-71
2023/05/06 10:48:35;;;;;;;;;;;21.20;99.90;;;;;;5040539;28;20333;-71
2023/05/06 10:51:20;;;;;;;;;;;21.30;99.90;;;;;;5040875;28;19932;-69
2023/05/06 10:53:59;;;;;;;;;;;21.40;99.90;;;;;;5036784;28;20393;-69
2023/05/06 10:56:25;;;;;;;;;;;21.50;99.90;;;;;;5029472;28;20277;-70
2023/05/06 10:58:50;;;;;;;;;;;21.60;99.90;;;;;;5043024;28;19921;-69
2023/05/06 11:01:19;;;;;;;;;;;21.50;99.90;;;;;;5066645;28;19921;-70
2023/05/06 11:03:45;;;;;;;;;;;21.50;99.90;;;;;;5067375;28;19970;-68
2023/05/06 11:06:10;;;;;;;;;;;21.40;99.90;;;;;;5044048;28;19921;-69
2023/05/06 11:08:36;;;;;;;;;;;21.40;99.90;;;;;;5046571;28;19960;-69
2023/05/06 11:11:21;;;;;;;;;;;21.40;99.90;;;;;;5051228;28;19931;-69
2023/05/06 11:13:51;;;;;;;;;;;21.40;99.90;;;;;;5050314;28;19921;-69
2023/05/06 11:16:36;;;;;;;;;;;21.20;99.90;;;;;;5026671;28;19928;-68
2023/05/06 11:19:02;;;;;;;;;;;20.60;99.90;;;;;;5039025;28;19921;-69
2023/05/06 11:21:31;;;;;;;;;;;20.90;99.90;;;;;;5040143;28;19983;-71
2023/05/06 11:23:56;;;;;;;;;;;21.10;99.90;;;;;;5029659;28;20272;-69
2023/05/06 11:26:23;;;;;;;;;;;21.10;99.90;;;;;;5037216;28;21697;-69
2023/05/06 11:28:49;;;;;;;;;;;21.00;99.90;;;;;;5046255;28;19932;-69
2023/05/06 11:31:15;;;;;;;;;;;20.90;99.90;;;;;;5049017;28;19920;-69
2023/05/06 11:33:48;;;;;;;;;;;20.80;99.90;;;;;;5050036;28;19921;-70
2023/05/06 11:36:14;;;;;;;;;;;20.60;99.90;;;;;;5037151;28;19921;-69
2023/05/06 11:38:43;;;;;;;;;;;20.60;99.90;;;;;;5037780;28;19928;-69
2023/05/06 11:41:09;;;;;;;;;;;21.00;99.90;;;;;;5044348;28;19920;-69
2023/05/06 11:43:34;;;;;;;;;;;21.10;99.90;;;;;;5035444;28;20419;-68
2023/05/06 11:46:00;;;;;;;;;;;21.50;99.90;;;;;;5050152;28;19921;-68
2023/05/06 11:48:25;;;;;;;;;;;22.00;99.90;;;;;;5049952;28;20623;-70
2023/05/06 11:50:51;;;;;;;;;;;21.70;99.90;;;;;;5039788;28;19925;-70
2023/05/06 11:53:18;;;;;;;;;;;21.60;99.90;;;;;;5047368;28;20294;-70
2023/05/06 11:55:44;;;;;;;;;;;21.50;99.90;;;;;;5051256;28;19928;-70
2023/05/06 11:58:27;;;;;;;;;;;21.30;99.90;;;;;;5039489;28;20436;-70
2023/05/06 12:00:56;;;;;;;;;;;21.10;99.90;;;;;;5049817;28;20015;-70
2023/05/06 12:03:22;;;;;;;;;;;20.90;99.90;;;;;;5051361;28;20444;-69
2023/05/06 12:05:48;;;;;;;;;;;20.80;99.90;;;;;;5043190;28;19929;-69
2023/05/06 12:08:15;;;;;;;;;;;20.60;99.90;;;;;;5040517;28;19927;-70
2023/05/06 12:10:40;;;;;;;;;;;20.50;99.90;;;;;;5051217;28;19928;-69
2023/05/06 12:13:06;;;;;;;;;;;20.50;99.90;;;;;;5057006;28;20449;-73
2023/05/06 12:15:33;;;;;;;;;;;20.50;99.90;;;;;;5034494;28;19963;-69
2023/05/06 12:17:58;;;;;;;;;;;20.50;99.90;;;;;;5046621;28;19925;-70
2023/05/06 12:20:24;;;;;;;;;;;20.40;99.90;;;;;;5049348;28;19927;-65
2023/05/06 12:23:09;;;;;;;;;;;20.40;99.90;;;;;;5041703;28;19926;-69
2023/05/06 12:25:35;;;;;;;;;;;20.50;99.90;;;;;;5041776;28;20276;-69
2023/05/06 12:28:00;;;;;;;;;;;20.70;99.90;;;;;;5049316;28;20485;-68
2023/05/06 12:30:33;;;;;;;;;;;20.90;99.90;;;;;;5048425;28;19921;-68
2023/05/06 12:32:58;;;;;;;;;;;21.00;99.90;;;;;;5036127;28;20004;-68
2023/05/06 12:35:25;;;;;;;;;;;21.00;99.90;;;;;;5050154;28;20399;-67
2023/05/06 12:37:50;;;;;;;;;;;21.20;99.90;;;;;;5049592;28;19970;-63
2023/05/06 12:40:16;;;;;;;;;;;21.50;99.90;;;;;;5044538;28;20019;-67
2023/05/06 12:42:42;;;;;;;;;;;21.90;99.90;;;;;;5027233;28;19929;-66
2023/05/06 12:45:14;;;;;;;;;;;22.10;99.90;;;;;;5036725;28;20334;-65
2023/05/06 12:47:50;;;;;;;;;;;22.30;99.90;;;;;;5031071;28;19925;-67
2023/05/06 12:50:29;;;;;;;;;;;22.20;99.90;;;;;;5051164;28;19927;-65
2023/05/06 12:52:54;;;;;;;;;;;21.70;99.90;;;;;;5037302;28;20015;-68
2023/05/06 12:55:22;;;;;;;;;;;21.50;99.90;;;;;;5045957;28;20398;-70
2023/05/06 12:57:48;;;;;;;;;;;21.30;99.90;;;;;;5058123;28;19928;-65
2023/05/06 13:00:14;;;;;;;;;;;21.30;99.90;;;;;;5036826;28;19921;-66
2023/05/06 13:02:40;;;;;;;;;;;21.10;99.90;;;;;;5032360;28;19937;-69
2023/05/06 13:05:05;;;;;;;;;;;21.10;99.90;;;;;;5037502;28;20456;-65
2023/05/06 13:07:31;;;;;;;;;;;21.10;99.90;;;;;;5049026;28;20019;-65
2023/05/06 13:09:56;;;;;;;;;;;21.00;99.90;;;;;;5038205;28;20018;-67
2023/05/06 13:12:22;;;;;;;;;;;21.00;99.90;;;;;;5034302;28;19944;-67
2023/05/06 13:14:47;;;;;;;;;;;21.20;99.90;;;;;;5037210;28;19967;-68
2023/05/06 13:17:13;;;;;;;;;;;21.50;99.90;;;;;;5045328;28;19921;-69
2023/05/06 13:19:38;;;;;;;;;;;21.70;99.90;;;;;;5069400;28;19931;-69
2023/05/06 13:22:04;;;;;;;;;;;21.90;99.90;;;;;;5042742;28;19948;-66
2023/05/06 13:24:31;;;;;;;;;;;22.10;99.90;;;;;;5040560;28;19925;-67
2023/05/06 13:26:58;;;;;;;;;;;21.90;99.90;;;;;;5052184;28;19990;-67
2023/05/06 13:29:24;;;;;;;;;;;22.20;99.90;;;;;;5039872;28;19975;-67
2023/05/06 13:31:50;;;;;;;;;;;22.20;99.90;;;;;;5049541;28;19925;-67
2023/05/06 13:34:15;;;;;;;;;;;22.40;99.90;;;;;;5051633;28;19927;-68
2023/05/06 13:36:42;;;;;;;;;;;22.40;99.90;;;;;;5053362;28;20383;-67
2023/05/06 13:39:08;;;;;;;;;;;22.70;99.90;;;;;;5038875;28;20445;-66
2023/05/06 13:41:33;;;;;;;;;;;22.80;99.90;;;;;;5053218;28;19920;-67
2023/05/06 13:43:59;;;;;;;;;;;23.30;99.90;;;;;;5069006;28;19932;-67
2023/05/06 13:46:26;;;;;;;;;;;23.70;99.90;;;;;;5048234;28;19925;-67
2023/05/06 13:48:52;;;;;;;;;;;23.90;99.90;;;;;;5048901;28;19967;-67
2023/05/06 13:51:17;;;;;;;;;;;23.90;99.70;;;;;;5046045;28;19967;-67
2023/05/06 13:53:43;;;;;;;;;;;23.70;98.90;;;;;;5043730;28;19975;-67
2023/05/06 13:56:08;;;;;;;;;;;23.40;98.90;;;;;;5040330;28;20008;-67
2023/05/06 13:58:34;;;;;;;;;;;23.20;99.20;;;;;;5052295;28;19921;-68
2023/05/06 14:00:59;;;;;;;;;;;23.20;99.20;;;;;;5051729;28;19956;-65
2023/05/06 14:03:27;;;;;;;;;;;23.30;99.90;;;;;;5037488;28;20065;-67
2023/05/06 14:05:54;;;;;;;;;;;23.20;98.80;;;;;;5049742;28;22228;-68
2023/05/06 14:08:20;;;;;;;;;;;23.00;99.90;;;;;;5031411;28;19924;-68
2023/05/06 14:10:45;;;;;;;;;;;22.80;99.90;;;;;;5033202;28;19921;-68
2023/05/06 14:13:11;;;;;;;;;;;22.60;99.90;;;;;;5038869;28;19925;-67
2023/05/06 14:15:37;;;;;;;;;;;22.70;99.90;;;;;;5041583;28;20329;-66